sensor_id;sensor_type;location;lat;lon;timestamp;pressure;altitude;pressure_sealevel;temperature;humidity
35224;BME280;21367;51.930;8.112;2023-03-14T00:04:22;98453.03;;;10.94;87.17
35224;BME280;21367;51.930;8.112;2023-03-14T00:09:28;98478.69;;;10.93;87.51
35224;BME280;21367;51.930;8.112;2023-03-14T00:14:33;98466.59;;;10.65;88.51
35224;BME280;21367;51.930;8.112;2023-03-14T00:19:37;98462.41;;;10.81;87.77
35224;BME280;21367;51.930;8.112;2023-03-14T00:24:43;98459.88;;;10.91;87.41
35224;BME280;21367;51.930;8.112;2023-03-14T00:29:47;98452.94;;;10.80;88.04
35224;BME280;21367;51.930;8.112;2023-03-14T00:34:51;98458.06;;;10.76;88.69
35224;BME280;21367;51.930;8.112;2023-03-14T00:39:58;98436.63;;;10.71;88.60
35224;BME280;21367;51.930;8.112;2023-03-14T00:45:02;98415.22;;;10.70;88.83
35224;BME280;21367;51.930;8.112;2023-03-14T00:50:09;98447.72;;;10.62;88.55
35224;BME280;21367;51.930;8.112;2023-03-14T00:55:16;98437.53;;;10.79;88.38
35224;BME280;21367;51.930;8.112;2023-03-14T01:00:20;98446.09;;;10.81;88.16
35224;BME280;21367;51.930;8.112;2023-03-14T01:05:24;98441.91;;;10.94;87.10
35224;BME280;21367;51.930;8.112;2023-03-14T01:10:31;98433.28;;;10.93;86.77
35224;BME280;21367;51.930;8.112;2023-03-14T01:15:34;98434.97;;;10.82;87.08
35224;BME280;21367;51.930;8.112;2023-03-14T01:20:38;98401.59;;;10.82;86.57
35224;BME280;21367;51.930;8.112;2023-03-14T01:25:44;98408.47;;;10.92;85.96
35224;BME280;21367;51.930;8.112;2023-03-14T01:30:48;98388.75;;;10.88;86.20
35224;BME280;21367;51.930;8.112;2023-03-14T01:35:52;98407.59;;;10.96;85.23
35224;BME280;21367;51.930;8.112;2023-03-14T01:40:58;98409.34;;;10.97;84.65
35224;BME280;21367;51.930;8.112;2023-03-14T01:46:32;98395.66;;;11.07;84.09
35224;BME280;21367;51.930;8.112;2023-03-14T01:51:42;98404.25;;;11.14;83.49
35224;BME280;21367;51.930;8.112;2023-03-14T01:56:53;98396.53;;;11.13;83.22
35224;BME280;21367;51.930;8.112;2023-03-14T02:02:00;98402.53;;;11.21;83.61
35224;BME280;21367;51.930;8.112;2023-03-14T02:07:10;98439.09;;;10.49;91.59
35224;BME280;21367;51.930;8.112;2023-03-14T02:12:24;98432.44;;;9.61;98.40
35224;BME280;21367;51.930;8.112;2023-03-14T02:17:48;98428.78;;;9.35;100.00
35224;BME280;21367;51.930;8.112;2023-03-14T02:22:59;98410.69;;;9.22;100.00
35224;BME280;21367;51.930;8.112;2023-03-14T02:28:07;98407.16;;;9.11;100.00
35224;BME280;21367;51.930;8.112;2023-03-14T02:39:21;98399.47;;;9.11;100.00
35224;BME280;21367;51.930;8.112;2023-03-14T02:44:31;98405.50;;;9.18;100.00
35224;BME280;21367;51.930;8.112;2023-03-14T02:49:37;98400.22;;;9.01;100.00
35224;BME280;21367;51.930;8.112;2023-03-14T02:54:40;98410.41;;;8.93;100.00
35224;BME280;21367;51.930;8.112;2023-03-14T02:59:47;98392.50;;;8.96;100.00
35224;BME280;21367;51.930;8.112;2023-03-14T03:04:53;98410.19;;;8.75;100.00
35224;BME280;21367;51.930;8.112;2023-03-14T03:09:57;98410.38;;;8.92;100.00
35224;BME280;21367;51.930;8.112;2023-03-14T03:15:04;98416.38;;;8.95;100.00
35224;BME280;21367;51.930;8.112;2023-03-14T03:20:11;98397.59;;;8.93;100.00
35224;BME280;21367;51.930;8.112;2023-03-14T03:25:14;98396.09;;;9.12;100.00
35224;BME280;21367;51.930;8.112;2023-03-14T03:30:22;98404.41;;;8.96;100.00
35224;BME280;21367;51.930;8.112;2023-03-14T03:35:26;98392.53;;;9.01;100.00
35224;BME280;21367;51.930;8.112;2023-03-14T03:40:31;98398.47;;;8.97;100.00
35224;BME280;21367;51.930;8.112;2023-03-14T03:45:37;98398.47;;;8.98;100.00
35224;BME280;21367;51.930;8.112;2023-03-14T03:50:44;98390.09;;;9.15;100.00
35224;BME280;21367;51.930;8.112;2023-03-14T03:55:53;98391.78;;;9.10;100.00
35224;BME280;21367;51.930;8.112;2023-03-14T04:01:00;98384.97;;;9.15;100.00
35224;BME280;21367;51.930;8.112;2023-03-14T04:06:05;98373.78;;;9.05;100.00
35224;BME280;21367;51.930;8.112;2023-03-14T04:11:12;98388.38;;;9.11;100.00
35224;BME280;21367;51.930;8.112;2023-03-14T04:16:44;98379.88;;;9.18;100.00
35224;BME280;21367;51.930;8.112;2023-03-14T04:21:51;98377.34;;;9.21;100.00
35224;BME280;21367;51.930;8.112;2023-03-14T04:26:57;98371.25;;;9.07;100.00
35224;BME280;21367;51.930;8.112;2023-03-14T04:32:04;98360.97;;;9.03;100.00
35224;BME280;21367;51.930;8.112;2023-03-14T04:37:10;98354.94;;;8.98;100.00
35224;BME280;21367;51.930;8.112;2023-03-14T04:42:17;98341.28;;;9.01;100.00
35224;BME280;21367;51.930;8.112;2023-03-14T04:47:24;98349.00;;;9.02;100.00
35224;BME280;21367;51.930;8.112;2023-03-14T04:52:29;98344.78;;;9.08;100.00
35224;BME280;21367;51.930;8.112;2023-03-14T04:57:34;98345.63;;;9.07;100.00
35224;BME280;21367;51.930;8.112;2023-03-14T05:02:45;98332.84;;;9.11;100.00
35224;BME280;21367;51.930;8.112;2023-03-14T05:08:20;98334.66;;;9.20;100.00
35224;BME280;21367;51.930;8.112;2023-03-14T05:13:43;98338.06;;;9.19;100.00
35224;BME280;21367;51.930;8.112;2023-03-14T05:19:02;98321.09;;;9.35;100.00
35224;BME280;21367;51.930;8.112;2023-03-14T05:24:24;98305.69;;;9.32;100.00
35224;BME280;21367;51.930;8.112;2023-03-14T05:29:48;98305.69;;;9.30;99.78
35224;BME280;21367;51.930;8.112;2023-03-14T05:34:54;98315.97;;;9.32;99.24
35224;BME280;21367;51.930;8.112;2023-03-14T05:40:12;98317.63;;;9.28;100.00
35224;BME280;21367;51.930;8.112;2023-03-14T05:45:25;98312.34;;;9.10;100.00
35224;BME280;21367;51.930;8.112;2023-03-14T05:50:43;98311.47;;;9.06;100.00
35224;BME280;21367;51.930;8.112;2023-03-14T05:56:07;98301.94;;;8.96;100.00
35224;BME280;21367;51.930;8.112;2023-03-14T06:01:31;98299.38;;;8.91;100.00
35224;BME280;21367;51.930;8.112;2023-03-14T06:06:46;98304.25;;;8.70;100.00
35224;BME280;21367;51.930;8.112;2023-03-14T06:11:50;98309.09;;;8.45;100.00
35224;BME280;21367;51.930;8.112;2023-03-14T06:16:55;98309.78;;;8.33;100.00
35224;BME280;21367;51.930;8.112;2023-03-14T06:22:04;98309.94;;;8.41;100.00
35224;BME280;21367;51.930;8.112;2023-03-14T06:27:11;98315.06;;;8.44;100.00
35224;BME280;21367;51.930;8.112;2023-03-14T06:32:16;98308.22;;;8.40;100.00
35224;BME280;21367;51.930;8.112;2023-03-14T06:37:23;98307.53;;;8.56;100.00
35224;BME280;21367;51.930;8.112;2023-03-14T06:42:27;98313.47;;;8.54;100.00
35224;BME280;21367;51.930;8.112;2023-03-14T06:47:32;98324.63;;;8.57;100.00
35224;BME280;21367;51.930;8.112;2023-03-14T06:52:38;98323.00;;;8.66;100.00
35224;BME280;21367;51.930;8.112;2023-03-14T06:57:51;98316.16;;;8.63;100.00
35224;BME280;21367;51.930;8.112;2023-03-14T07:02:55;98327.38;;;8.74;100.00
35224;BME280;21367;51.930;8.112;2023-03-14T07:08:06;98320.28;;;8.52;100.00
35224;BME280;21367;51.930;8.112;2023-03-14T07:13:10;98333.25;;;8.66;100.00
35224;BME280;21367;51.930;8.112;2023-03-14T07:18:29;98331.38;;;8.51;100.00
35224;BME280;21367;51.930;8.112;2023-03-14T07:23:36;98320.91;;;8.35;100.00
35224;BME280;21367;51.930;8.112;2023-03-14T07:28:41;98323.94;;;8.72;100.00
35224;BME280;21367;51.930;8.112;2023-03-14T07:33:50;98328.41;;;8.90;100.00
35224;BME280;21367;51.930;8.112;2023-03-14T07:38:58;98330.59;;;8.58;100.00
35224;BME280;21367;51.930;8.112;2023-03-14T07:44:08;98325.19;;;9.14;100.00
35224;BME280;21367;51.930;8.112;2023-03-14T07:49:12;98329.53;;;9.20;100.00
35224;BME280;21367;51.930;8.112;2023-03-14T07:54:18;98333.56;;;8.98;100.00
35224;BME280;21367;51.930;8.112;2023-03-14T07:59:22;98346.34;;;8.93;100.00
35224;BME280;21367;51.930;8.112;2023-03-14T08:04:25;98344.06;;;9.22;100.00
35224;BME280;21367;51.930;8.112;2023-03-14T08:09:32;98334.66;;;9.18;100.00
35224;BME280;21367;51.930;8.112;2023-03-14T08:14:36;98340.56;;;9.14;100.00
35224;BME280;21367;51.930;8.112;2023-03-14T08:19:41;98344.09;;;9.27;100.00
35224;BME280;21367;51.930;8.112;2023-03-14T08:24:47;98339.91;;;9.35;100.00
35224;BME280;21367;51.930;8.112;2023-03-14T08:29:51;98337.56;;;9.63;100.00
35224;BME280;21367;51.930;8.112;2023-03-14T08:34:55;98335.09;;;9.75;100.00
35224;BME280;21367;51.930;8.112;2023-03-14T08:40:01;98336.88;;;9.90;100.00
35224;BME280;21367;51.930;8.112;2023-03-14T08:45:08;98349.63;;;9.76;100.00
35224;BME280;21367;51.930;8.112;2023-03-14T08:50:14;98348.78;;;9.79;100.00
35224;BME280;21367;51.930;8.112;2023-03-14T08:55:20;98341.13;;;9.82;100.00
35224;BME280;21367;51.930;8.112;2023-03-14T09:00:24;98353.97;;;9.86;100.00
35224;BME280;21367;51.930;8.112;2023-03-14T09:05:28;98348.94;;;10.02;100.00
35224;BME280;21367;51.930;8.112;2023-03-14T09:10:34;98353.34;;;10.26;100.00
35224;BME280;21367;51.930;8.112;2023-03-14T09:15:39;98344.78;;;10.19;100.00
35224;BME280;21367;51.930;8.112;2023-03-14T09:20:42;98355.25;;;10.65;100.00
35224;BME280;21367;51.930;8.112;2023-03-14T09:25:49;98371.59;;;10.79;100.00
35224;BME280;21367;51.930;8.112;2023-03-14T09:30:52;98368.91;;;10.55;100.00
35224;BME280;21367;51.930;8.112;2023-03-14T09:35:58;98365.41;;;10.31;100.00
35224;BME280;21367;51.930;8.112;2023-03-14T09:41:13;98381.69;;;10.39;100.00
35224;BME280;21367;51.930;8.112;2023-03-14T09:46:18;98394.53;;;10.39;100.00
35224;BME280;21367;51.930;8.112;2023-03-14T09:51:22;98378.38;;;10.62;100.00
35224;BME280;21367;51.930;8.112;2023-03-14T09:56:31;98395.47;;;10.58;100.00
35224;BME280;21367;51.930;8.112;2023-03-14T10:01:35;98391.97;;;10.42;100.00
35224;BME280;21367;51.930;8.112;2023-03-14T10:06:39;98392.00;;;10.47;100.00
35224;BME280;21367;51.930;8.112;2023-03-14T10:11:45;98403.16;;;10.55;100.00
35224;BME280;21367;51.930;8.112;2023-03-14T10:16:49;98473.13;;;10.24;100.00
35224;BME280;21367;51.930;8.112;2023-03-14T10:21:54;98499.59;;;9.25;100.00
35224;BME280;21367;51.930;8.112;2023-03-14T10:27:03;98502.50;;;8.84;100.00
35224;BME280;21367;51.930;8.112;2023-03-14T10:32:19;98519.56;;;8.85;100.00
35224;BME280;21367;51.930;8.112;2023-03-14T10:37:24;98554.13;;;8.52;100.00
35224;BME280;21367;51.930;8.112;2023-03-14T10:42:33;98570.22;;;8.47;100.00
35224;BME280;21367;51.930;8.112;2023-03-14T10:47:48;98587.38;;;8.04;100.00
35224;BME280;21367;51.930;8.112;2023-03-14T10:52:53;98636.78;;;7.57;100.00
35224;BME280;21367;51.930;8.112;2023-03-14T10:58:00;98665.63;;;7.50;100.00
35224;BME280;21367;51.930;8.112;2023-03-14T11:03:08;98695.28;;;7.06;100.00
35224;BME280;21367;51.930;8.112;2023-03-14T11:08:19;98729.75;;;6.87;100.00
35224;BME280;21367;51.930;8.112;2023-03-14T11:13:33;98748.78;;;7.36;100.00
35224;BME280;21367;51.930;8.112;2023-03-14T11:19:10;98797.41;;;7.04;98.51
35224;BME280;21367;51.930;8.112;2023-03-14T11:24:25;98823.13;;;6.79;95.57
35224;BME280;21367;51.930;8.112;2023-03-14T11:29:38;98845.44;;;6.54;96.13
35224;BME280;21367;51.930;8.112;2023-03-14T11:34:49;98880.03;;;6.14;95.16
35224;BME280;21367;51.930;8.112;2023-03-14T11:39:59;98920.97;;;6.19;90.84
35224;BME280;21367;51.930;8.112;2023-03-14T11:45:15;98940.34;;;6.42;90.91
35224;BME280;21367;51.930;8.112;2023-03-14T11:50:23;98967.16;;;6.01;88.05
35224;BME280;21367;51.930;8.112;2023-03-14T11:55:32;98990.59;;;5.65;87.73
35224;BME280;21367;51.930;8.112;2023-03-14T12:00:40;99003.06;;;6.61;86.34
35224;BME280;21367;51.930;8.112;2023-03-14T12:05:53;99028.44;;;6.04;83.55
35224;BME280;21367;51.930;8.112;2023-03-14T12:11:01;99057.38;;;6.30;82.73
35224;BME280;21367;51.930;8.112;2023-03-14T12:16:25;99058.81;;;6.49;84.71
35224;BME280;21367;51.930;8.112;2023-03-14T12:21:45;99065.66;;;7.06;83.87
35224;BME280;21367;51.930;8.112;2023-03-14T12:26:53;99081.81;;;6.78;82.18
35224;BME280;21367;51.930;8.112;2023-03-14T12:32:21;99095.09;;;6.67;83.35
35224;BME280;21367;51.930;8.112;2023-03-14T12:37:31;99112.69;;;7.14;84.70
35224;BME280;21367;51.930;8.112;2023-03-14T12:42:43;99127.41;;;7.21;83.85
35224;BME280;21367;51.930;8.112;2023-03-14T12:48:10;99132.03;;;7.95;80.71
35224;BME280;21367;51.930;8.112;2023-03-14T12:53:55;99147.56;;;8.01;79.16
35224;BME280;21367;51.930;8.112;2023-03-14T12:59:13;99157.59;;;7.63;80.30
35224;BME280;21367;51.930;8.112;2023-03-14T13:04:26;99182.88;;;7.25;82.36
35224;BME280;21367;51.930;8.112;2023-03-14T13:10:05;99202.72;;;7.05;84.10
35224;BME280;21367;51.930;8.112;2023-03-14T13:15:23;99216.72;;;6.91;81.65
35224;BME280;21367;51.930;8.112;2023-03-14T13:20:32;99225.38;;;7.50;79.78
35224;BME280;21367;51.930;8.112;2023-03-14T13:25:37;99243.28;;;7.50;79.78
35224;BME280;21367;51.930;8.112;2023-03-14T13:30:43;99258.06;;;7.60;78.92
35224;BME280;21367;51.930;8.112;2023-03-14T13:35:55;99258.75;;;7.55;76.52
35224;BME280;21367;51.930;8.112;2023-03-14T13:41:00;99263.91;;;7.83;74.77
35224;BME280;21367;51.930;8.112;2023-03-14T13:46:12;99288.44;;;8.07;73.70
35224;BME280;21367;51.930;8.112;2023-03-14T13:51:20;99309.88;;;7.82;72.58
35224;BME280;21367;51.930;8.112;2023-03-14T13:56:32;99309.94;;;8.14;72.65
35224;BME280;21367;51.930;8.112;2023-03-14T14:01:38;99336.50;;;7.34;67.93
35224;BME280;21367;51.930;8.112;2023-03-14T14:06:47;99349.22;;;7.58;66.31
35224;BME280;21367;51.930;8.112;2023-03-14T14:11:55;99362.34;;;7.96;64.24
35224;BME280;21367;51.930;8.112;2023-03-14T14:16:59;99371.81;;;7.46;65.35
35224;BME280;21367;51.930;8.112;2023-03-14T14:22:08;99412.41;;;7.37;66.92
35224;BME280;21367;51.930;8.112;2023-03-14T14:27:14;99413.56;;;6.73;66.25
35224;BME280;21367;51.930;8.112;2023-03-14T14:32:19;99435.59;;;6.93;66.37
35224;BME280;21367;51.930;8.112;2023-03-14T14:37:27;99453.81;;;8.32;59.34
35224;BME280;21367;51.930;8.112;2023-03-14T14:42:32;99459.44;;;8.76;59.40
35224;BME280;21367;51.930;8.112;2023-03-14T14:47:47;99470.19;;;9.56;55.82
35224;BME280;21367;51.930;8.112;2023-03-14T14:52:56;99481.66;;;9.37;53.94
35224;BME280;21367;51.930;8.112;2023-03-14T14:58:12;99502.09;;;9.66;59.61
35224;BME280;21367;51.930;8.112;2023-03-14T15:03:17;99520.97;;;10.03;55.32
35224;BME280;21367;51.930;8.112;2023-03-14T15:08:25;99522.28;;;10.94;53.83
35224;BME280;21367;51.930;8.112;2023-03-14T15:13:29;99541.94;;;11.33;54.47
35224;BME280;21367;51.930;8.112;2023-03-14T15:18:34;99543.03;;;11.90;49.47
35224;BME280;21367;51.930;8.112;2023-03-14T15:23:40;99561.09;;;12.43;47.47
35224;BME280;21367;51.930;8.112;2023-03-14T15:28:44;99575.09;;;11.21;46.91
35224;BME280;21367;51.930;8.112;2023-03-14T15:33:48;99593.06;;;10.12;48.57
35224;BME280;21367;51.930;8.112;2023-03-14T15:38:55;99589.94;;;8.44;50.31
35224;BME280;21367;51.930;8.112;2023-03-14T15:44:00;99614.38;;;8.62;51.61
35224;BME280;21367;51.930;8.112;2023-03-14T15:49:03;99624.53;;;8.58;50.08
35224;BME280;21367;51.930;8.112;2023-03-14T15:54:10;99629.84;;;8.92;51.89
35224;BME280;21367;51.930;8.112;2023-03-14T15:59:14;99643.28;;;8.08;51.78
35224;BME280;21367;51.930;8.112;2023-03-14T16:04:18;99644.53;;;8.19;54.08
35224;BME280;21367;51.930;8.112;2023-03-14T16:09:24;99653.06;;;7.96;54.46
35224;BME280;21367;51.930;8.112;2023-03-14T16:14:28;99671.31;;;7.12;54.86
35224;BME280;21367;51.930;8.112;2023-03-14T16:19:31;99676.66;;;7.18;55.11
35224;BME280;21367;51.930;8.112;2023-03-14T16:24:38;99690.22;;;7.17;56.08
35224;BME280;21367;51.930;8.112;2023-03-14T16:29:42;99711.13;;;6.86;55.90
35224;BME280;21367;51.930;8.112;2023-03-14T16:34:48;99729.25;;;6.71;56.11
35224;BME280;21367;51.930;8.112;2023-03-14T16:39:54;99740.56;;;6.99;55.82
35224;BME280;21367;51.930;8.112;2023-03-14T16:44:58;99749.56;;;6.89;57.43
35224;BME280;21367;51.930;8.112;2023-03-14T16:50:01;99765.13;;;6.74;56.55
35224;BME280;21367;51.930;8.112;2023-03-14T16:55:09;99782.56;;;6.44;56.43
35224;BME280;21367;51.930;8.112;2023-03-14T17:00:14;99805.72;;;6.29;57.56
35224;BME280;21367;51.930;8.112;2023-03-14T17:05:17;99825.41;;;6.32;57.31
35224;BME280;21367;51.930;8.112;2023-03-14T17:10:24;99837.53;;;6.18;57.54
35224;BME280;21367;51.930;8.112;2023-03-14T17:15:27;99856.81;;;6.11;55.86
35224;BME280;21367;51.930;8.112;2023-03-14T17:20:31;99863.19;;;5.85;54.86
35224;BME280;21367;51.930;8.112;2023-03-14T17:25:38;99879.63;;;6.08;55.21
35224;BME280;21367;51.930;8.112;2023-03-14T17:30:41;99898.53;;;5.77;55.76
35224;BME280;21367;51.930;8.112;2023-03-14T17:35:45;99920.09;;;5.84;55.69
35224;BME280;21367;51.930;8.112;2023-03-14T17:40:52;99924.91;;;5.78;56.63
35224;BME280;21367;51.930;8.112;2023-03-14T17:45:56;99945.22;;;5.76;56.98
35224;BME280;21367;51.930;8.112;2023-03-14T17:51:00;99960.84;;;5.66;56.40
35224;BME280;21367;51.930;8.112;2023-03-14T17:56:07;99967.38;;;5.43;56.96
35224;BME280;21367;51.930;8.112;2023-03-14T18:01:14;99982.34;;;5.37;57.50
35224;BME280;21367;51.930;8.112;2023-03-14T18:06:18;99997.41;;;5.49;57.64
35224;BME280;21367;51.930;8.112;2023-03-14T18:11:24;100001.53;;;5.30;58.19
35224;BME280;21367;51.930;8.112;2023-03-14T18:16:28;100018.91;;;5.21;58.55
35224;BME280;21367;51.930;8.112;2023-03-14T18:21:32;100018.59;;;5.15;57.46
35224;BME280;21367;51.930;8.112;2023-03-14T18:26:38;100041.34;;;5.12;58.42
35224;BME280;21367;51.930;8.112;2023-03-14T18:31:42;100043.09;;;5.46;58.67
35224;BME280;21367;51.930;8.112;2023-03-14T18:36:46;100059.88;;;5.26;58.97
35224;BME280;21367;51.930;8.112;2023-03-14T18:41:53;100069.44;;;4.82;60.54
35224;BME280;21367;51.930;8.112;2023-03-14T18:46:56;100078.38;;;4.91;60.40
35224;BME280;21367;51.930;8.112;2023-03-14T18:52:00;100082.78;;;4.93;61.54
35224;BME280;21367;51.930;8.112;2023-03-14T18:57:06;100093.84;;;4.79;61.94
35224;BME280;21367;51.930;8.112;2023-03-14T19:02:10;100106.81;;;4.98;63.08
35224;BME280;21367;51.930;8.112;2023-03-14T19:07:13;100114.88;;;5.06;63.51
35224;BME280;21367;51.930;8.112;2023-03-14T19:12:19;100125.25;;;4.94;64.45
35224;BME280;21367;51.930;8.112;2023-03-14T19:17:23;100135.38;;;4.93;65.58
35224;BME280;21367;51.930;8.112;2023-03-14T19:22:26;100139.19;;;5.01;65.04
35224;BME280;21367;51.930;8.112;2023-03-14T19:27:34;100152.03;;;5.02;65.50
35224;BME280;21367;51.930;8.112;2023-03-14T19:32:39;100157.13;;;5.02;65.78
35224;BME280;21367;51.930;8.112;2023-03-14T19:37:44;100174.72;;;4.83;66.96
35224;BME280;21367;51.930;8.112;2023-03-14T19:42:50;100180.41;;;4.94;67.13
35224;BME280;21367;51.930;8.112;2023-03-14T19:47:54;100186.81;;;4.72;66.68
35224;BME280;21367;51.930;8.112;2023-03-14T19:52:58;100195.25;;;4.41;67.16
35224;BME280;21367;51.930;8.112;2023-03-14T19:58:05;100205.44;;;4.71;66.78
35224;BME280;21367;51.930;8.112;2023-03-14T20:03:08;100215.78;;;4.59;67.42
35224;BME280;21367;51.930;8.112;2023-03-14T20:08:13;100224.25;;;4.73;67.00
35224;BME280;21367;51.930;8.112;2023-03-14T20:13:19;100222.63;;;4.60;67.05
35224;BME280;21367;51.930;8.112;2023-03-14T20:18:22;100236.97;;;4.73;66.98
35224;BME280;21367;51.930;8.112;2023-03-14T20:23:26;100237.63;;;4.41;67.88
35224;BME280;21367;51.930;8.112;2023-03-14T20:28:32;100246.34;;;4.74;67.36
35224;BME280;21367;51.930;8.112;2023-03-14T20:33:36;100259.81;;;4.44;67.95
35224;BME280;21367;51.930;8.112;2023-03-14T20:38:45;100270.09;;;4.45;68.48
35224;BME280;21367;51.930;8.112;2023-03-14T20:43:51;100277.38;;;4.39;69.00
35224;BME280;21367;51.930;8.112;2023-03-14T20:48:55;100280.06;;;4.27;69.95
35224;BME280;21367;51.930;8.112;2023-03-14T20:54:00;100284.69;;;3.78;70.16
35224;BME280;21367;51.930;8.112;2023-03-14T20:59:07;100290.56;;;4.18;70.31
35224;BME280;21367;51.930;8.112;2023-03-14T21:04:10;100293.13;;;4.05;71.18
35224;BME280;21367;51.930;8.112;2023-03-14T21:09:14;100300.75;;;4.05;71.41
35224;BME280;21367;51.930;8.112;2023-03-14T21:14:20;100306.78;;;3.66;71.64
35224;BME280;21367;51.930;8.112;2023-03-14T21:19:25;100300.50;;;3.87;72.15
35224;BME280;21367;51.930;8.112;2023-03-14T21:24:32;100312.88;;;3.55;72.71
35224;BME280;21367;51.930;8.112;2023-03-14T21:29:40;100316.69;;;3.61;73.35
35224;BME280;21367;51.930;8.112;2023-03-14T21:34:44;100318.34;;;3.61;73.24
35224;BME280;21367;51.930;8.112;2023-03-14T21:39:48;100316.94;;;3.66;73.01
35224;BME280;21367;51.930;8.112;2023-03-14T21:44:54;100319.91;;;3.59;72.94
35224;BME280;21367;51.930;8.112;2023-03-14T21:49:58;100320.78;;;3.59;72.89
35224;BME280;21367;51.930;8.112;2023-03-14T21:55:02;100328.59;;;3.36;73.29
35224;BME280;21367;51.930;8.112;2023-03-14T22:00:10;100323.53;;;3.36;73.92
35224;BME280;21367;51.930;8.112;2023-03-14T22:05:17;100334.06;;;3.55;73.00
35224;BME280;21367;51.930;8.112;2023-03-14T22:10:21;100337.53;;;3.04;74.28
35224;BME280;21367;51.930;8.112;2023-03-14T22:15:28;100330.53;;;3.27;73.63
35224;BME280;21367;51.930;8.112;2023-03-14T22:20:32;100340.91;;;3.30;73.13
35224;BME280;21367;51.930;8.112;2023-03-14T22:25:38;100344.09;;;3.14;74.32
35224;BME280;21367;51.930;8.112;2023-03-14T22:30:48;100349.66;;;3.08;74.53
35224;BME280;21367;51.930;8.112;2023-03-14T22:35:52;100346.94;;;2.55;76.29
35224;BME280;21367;51.930;8.112;2023-03-14T22:40:59;100352.81;;;2.54;76.03
35224;BME280;21367;51.930;8.112;2023-03-14T22:46:06;100355.00;;;2.74;76.00
35224;BME280;21367;51.930;8.112;2023-03-14T22:51:10;100349.91;;;2.61;75.55
35224;BME280;21367;51.930;8.112;2023-03-14T22:56:15;100358.84;;;2.19;77.18
35224;BME280;21367;51.930;8.112;2023-03-14T23:01:22;100366.22;;;2.28;77.00
35224;BME280;21367;51.930;8.112;2023-03-14T23:06:26;100368.03;;;2.17;77.86
35224;BME280;21367;51.930;8.112;2023-03-14T23:11:29;100371.91;;;2.37;77.36
35224;BME280;21367;51.930;8.112;2023-03-14T23:16:37;100379.41;;;1.87;79.29
35224;BME280;21367;51.930;8.112;2023-03-14T23:21:41;100366.97;;;2.39;77.84
35224;BME280;21367;51.930;8.112;2023-03-14T23:26:45;100372.34;;;1.95;77.88
35224;BME280;21367;51.930;8.112;2023-03-14T23:31:51;100372.13;;;2.40;77.55
35224;BME280;21367;51.930;8.112;2023-03-14T23:36:55;100371.91;;;2.37;76.95
35224;BME280;21367;51.930;8.112;2023-03-14T23:41:59;100379.19;;;1.84;77.99
35224;BME280;21367;51.930;8.112;2023-03-14T23:47:07;100383.53;;;2.22;77.32
35224;BME280;21367;51.930;8.112;2023-03-14T23:52:11;100389.25;;;2.19;78.07
35224;BME280;21367;51.930;8.112;2023-03-14T23:57:15;100398.84;;;2.35;77.69
